createdAt,value
2022-11-15T00:00:35.056Z,3.45
2022-11-15T00:03:01.449Z,3.43
2022-11-15T00:05:27.773Z,3.36
2022-11-15T00:07:55.915Z,3.23
2022-11-15T00:10:22.557Z,3.24
2022-11-15T00:12:48.841Z,3.31
2022-11-15T00:15:15.191Z,3.42
2022-11-15T00:17:41.490Z,3.52
2022-11-15T00:20:08.206Z,3.53
2022-11-15T00:22:34.633Z,3.63
2022-11-15T00:25:00.971Z,3.68
2022-11-15T00:27:28.229Z,3.67
2022-11-15T00:29:54.627Z,3.75
2022-11-15T00:32:20.943Z,3.81
2022-11-15T00:34:47.229Z,3.94
2022-11-15T00:37:13.491Z,4.06
2022-11-15T00:39:39.763Z,4.11
2022-11-15T00:42:06.057Z,4.17
2022-11-15T00:44:32.321Z,4.20
2022-11-15T00:46:58.601Z,4.18
2022-11-15T00:49:24.878Z,4.15
2022-11-15T00:51:51.199Z,4.18
2022-11-15T00:54:17.491Z,4.17
2022-11-15T00:56:43.782Z,4.20
2022-11-15T00:59:10.058Z,4.26
2022-11-15T01:01:36.391Z,4.28
2022-11-15T01:04:03.019Z,4.28
2022-11-15T01:06:29.344Z,4.32
2022-11-15T01:08:55.639Z,4.31
2022-11-15T01:11:21.922Z,4.26
2022-11-15T01:13:48.204Z,4.26
2022-11-15T01:16:16.127Z,4.27
2022-11-15T01:18:42.569Z,4.25
2022-11-15T01:21:10.456Z,4.29
2022-11-15T01:23:37.205Z,4.34
2022-11-15T01:26:04.763Z,4.36
2022-11-15T01:28:35.190Z,4.39
2022-11-15T01:31:02.118Z,4.44
2022-11-15T01:33:29.311Z,4.47
2022-11-15T01:35:55.993Z,4.47
2022-11-15T01:38:22.997Z,4.46
2022-11-15T01:40:49.403Z,4.44
2022-11-15T01:43:24.975Z,4.39
2022-11-15T01:45:56.653Z,4.37
2022-11-15T01:48:25.663Z,4.33
2022-11-15T01:50:52.107Z,4.26
2022-11-15T01:53:20.338Z,4.20
2022-11-15T01:55:46.845Z,4.21
2022-11-15T01:58:13.116Z,4.21
2022-11-15T02:00:39.691Z,4.26
2022-11-15T02:03:06.033Z,4.22
2022-11-15T02:05:32.569Z,4.25
2022-11-15T02:08:00.446Z,4.24
2022-11-15T02:10:26.950Z,4.20
2022-11-15T02:12:54.966Z,4.08
2022-11-15T02:15:21.447Z,4.06
2022-11-15T02:18:09.415Z,3.97
2022-11-15T02:20:53.386Z,3.95
2022-11-15T02:23:22.845Z,4.01
2022-11-15T02:26:12.846Z,4.00
2022-11-15T02:28:57.992Z,4.01
2022-11-15T02:31:33.206Z,3.99
2022-11-15T02:34:29.266Z,4.00
2022-11-15T02:37:01.888Z,3.97
2022-11-15T02:39:34.054Z,3.99
2022-11-15T02:42:04.955Z,3.96
2022-11-15T02:44:44.590Z,3.91
2022-11-15T02:47:14.747Z,3.87
2022-11-15T02:49:52.577Z,3.85
2022-11-15T02:52:20.666Z,3.82
2022-11-15T02:54:56.999Z,3.80
2022-11-15T02:57:31.928Z,3.80
2022-11-15T03:00:00.905Z,3.73
2022-11-15T03:02:39.180Z,3.69
2022-11-15T03:05:13.044Z,3.60
2022-11-15T03:08:05.590Z,3.57
2022-11-15T03:11:10.279Z,3.55
2022-11-15T03:13:39.795Z,3.47
2022-11-15T03:16:09.065Z,3.45
2022-11-15T03:18:38.038Z,3.40
2022-11-15T03:21:06.504Z,3.42
2022-11-15T03:23:33.680Z,3.34
2022-11-15T03:26:01.744Z,3.27
2022-11-15T03:28:35.492Z,3.17
2022-11-15T03:31:22.878Z,3.08
2022-11-15T03:33:50.243Z,2.93
2022-11-15T03:36:17.454Z,2.86
2022-11-15T03:38:44.488Z,2.84
2022-11-15T03:41:32.532Z,2.76
2022-11-15T03:44:08.169Z,2.79
2022-11-15T03:46:45.313Z,2.78
2022-11-15T03:49:15.345Z,2.75
2022-11-15T03:51:41.988Z,2.65
2022-11-15T03:54:08.437Z,2.60
2022-11-15T03:56:34.725Z,2.48
2022-11-15T03:59:01.023Z,2.44
2022-11-15T04:01:27.373Z,2.41
2022-11-15T04:03:53.690Z,2.39
2022-11-15T04:06:19.982Z,2.43
2022-11-15T04:08:46.322Z,2.44
2022-11-15T04:11:12.593Z,2.43
2022-11-15T04:13:38.876Z,2.45
2022-11-15T04:16:05.296Z,2.52
2022-11-15T04:18:31.611Z,2.53
2022-11-15T04:21:16.634Z,2.54
2022-11-15T04:24:08.653Z,2.64
2022-11-15T04:26:34.937Z,2.66
2022-11-15T04:29:19.656Z,2.66
2022-11-15T04:31:45.935Z,2.65
2022-11-15T04:34:12.238Z,2.63
2022-11-15T04:36:57.191Z,2.57
2022-11-15T04:39:23.479Z,2.56
2022-11-15T04:41:49.767Z,2.55
2022-11-15T04:44:17.315Z,2.54
2022-11-15T04:46:44.062Z,2.55
2022-11-15T04:49:10.368Z,2.50
2022-11-15T04:51:36.660Z,2.51
2022-11-15T04:54:02.960Z,2.55
2022-11-15T04:56:29.381Z,2.49
2022-11-15T04:58:55.662Z,2.44
2022-11-15T05:01:21.994Z,2.44
2022-11-15T05:04:07.262Z,2.49
2022-11-15T05:06:33.552Z,2.53
2022-11-15T05:08:59.878Z,2.58
2022-11-15T05:11:28.127Z,2.61
2022-11-15T05:13:54.528Z,2.64
2022-11-15T05:16:20.806Z,2.57
2022-11-15T05:18:47.128Z,2.53
2022-11-15T05:21:14.645Z,2.45
2022-11-15T05:23:41.043Z,2.48
2022-11-15T05:26:09.396Z,2.60
2022-11-15T05:28:37.221Z,2.65
2022-11-15T05:31:21.648Z,2.81
2022-11-15T05:33:48.026Z,2.93
2022-11-15T05:36:26.599Z,3.07
2022-11-15T05:38:52.907Z,3.16
2022-11-15T05:41:21.584Z,3.24
2022-11-15T05:43:49.130Z,3.29
2022-11-15T05:46:15.633Z,3.34
2022-11-15T05:48:43.981Z,3.42
2022-11-15T05:51:10.407Z,3.48
2022-11-15T05:53:37.266Z,3.49
2022-11-15T05:56:04.473Z,3.51
2022-11-15T05:58:32.490Z,3.55
2022-11-15T06:00:58.864Z,3.57
2022-11-15T06:03:25.140Z,3.60
2022-11-15T06:05:51.498Z,3.63
2022-11-15T06:08:17.786Z,3.67
2022-11-15T06:10:44.171Z,3.68
2022-11-15T06:13:10.494Z,3.70
2022-11-15T06:15:36.777Z,3.69
2022-11-15T06:18:03.214Z,3.70
2022-11-15T06:20:30.324Z,3.75
2022-11-15T06:23:00.086Z,3.75
2022-11-15T06:25:27.231Z,3.77
2022-11-15T06:27:53.993Z,3.81
2022-11-15T06:30:20.575Z,3.86
2022-11-15T06:32:46.915Z,3.94
2022-11-15T06:35:13.678Z,4.02
2022-11-15T06:37:40.090Z,4.04
2022-11-15T06:40:07.015Z,4.08
2022-11-15T06:42:33.332Z,4.19
2022-11-15T06:44:59.846Z,4.27
2022-11-15T06:47:26.155Z,4.31
2022-11-15T06:49:52.553Z,4.37
2022-11-15T06:52:20.429Z,4.43
2022-11-15T06:54:46.726Z,4.49
2022-11-15T06:57:13.019Z,4.54
2022-11-15T06:59:40.811Z,4.58
2022-11-15T07:02:07.268Z,4.62
2022-11-15T07:04:35.080Z,4.69
2022-11-15T07:07:01.383Z,4.77
2022-11-15T07:09:27.822Z,4.80
2022-11-15T07:11:54.113Z,4.84
2022-11-15T07:14:20.396Z,4.89
2022-11-15T07:16:46.845Z,4.91
2022-11-15T07:19:13.134Z,4.94
2022-11-15T07:21:39.397Z,5.02
2022-11-15T07:24:05.839Z,5.07
2022-11-15T07:26:32.119Z,5.12
2022-11-15T07:28:58.551Z,5.15
2022-11-15T07:31:24.863Z,5.17
2022-11-15T07:33:51.295Z,5.20
2022-11-15T07:36:17.763Z,5.24
2022-11-15T07:38:44.111Z,5.29
2022-11-15T07:41:10.472Z,5.35
2022-11-15T07:43:36.942Z,5.39
2022-11-15T07:46:09.937Z,5.40
2022-11-15T07:48:44.015Z,5.46
2022-11-15T07:51:14.149Z,5.49
2022-11-15T07:53:40.833Z,5.55
2022-11-15T07:56:08.369Z,5.61
2022-11-15T07:58:34.680Z,5.65
2022-11-15T08:01:05.026Z,5.70
2022-11-15T08:03:31.619Z,5.73
2022-11-15T08:05:58.116Z,5.76
2022-11-15T08:08:24.656Z,5.79
2022-11-15T08:10:51.334Z,5.89
2022-11-15T08:13:17.899Z,5.91
2022-11-15T08:15:44.736Z,5.94
2022-11-15T08:18:12.728Z,5.99
2022-11-15T08:20:40.614Z,6.02
2022-11-15T08:23:07.187Z,6.06
2022-11-15T08:25:34.259Z,6.13
2022-11-15T08:28:01.741Z,6.16
2022-11-15T08:30:28.458Z,6.20
2022-11-15T08:32:56.807Z,6.29
2022-11-15T08:35:27.767Z,6.30
2022-11-15T08:37:55.477Z,6.32
2022-11-15T08:40:21.753Z,6.34
2022-11-15T08:42:48.353Z,6.35
2022-11-15T08:45:15.065Z,6.39
2022-11-15T08:47:41.377Z,6.42
2022-11-15T08:50:07.854Z,6.49
2022-11-15T08:52:34.397Z,6.47
2022-11-15T08:55:00.784Z,6.50
2022-11-15T08:57:29.242Z,6.54
2022-11-15T08:59:55.642Z,6.63
2022-11-15T09:02:22.099Z,6.64
2022-11-15T09:04:49.020Z,6.68
2022-11-15T09:07:15.346Z,6.70
2022-11-15T09:09:41.684Z,6.72
2022-11-15T09:12:08.476Z,6.77
2022-11-15T09:14:35.008Z,6.70
2022-11-15T09:17:02.058Z,6.73
2022-11-15T09:19:28.378Z,6.77
2022-11-15T09:21:55.284Z,6.79
2022-11-15T09:24:21.870Z,6.82
2022-11-15T09:26:50.298Z,6.89
2022-11-15T09:29:16.576Z,6.92
2022-11-15T09:31:42.865Z,6.95
2022-11-15T09:34:09.347Z,6.99
2022-11-15T09:36:35.915Z,6.99
2022-11-15T09:39:02.242Z,7.04
2022-11-15T09:41:37.417Z,7.07
2022-11-15T09:44:25.762Z,7.08
2022-11-15T09:46:52.338Z,7.09
2022-11-15T09:49:19.282Z,7.08
2022-11-15T09:51:48.072Z,7.11
2022-11-15T09:54:51.659Z,7.15
2022-11-15T09:57:17.080Z,7.19
2022-11-15T09:59:49.207Z,7.26
2022-11-15T10:02:15.465Z,7.31
2022-11-15T10:04:42.407Z,7.30
2022-11-15T10:07:31.999Z,7.30
2022-11-15T10:10:04.290Z,7.29
2022-11-15T10:12:31.016Z,7.33
2022-11-15T10:15:06.334Z,7.33
2022-11-15T10:17:35.543Z,7.31
2022-11-15T10:20:13.697Z,7.33
2022-11-15T10:22:51.511Z,7.36
2022-11-15T10:25:27.399Z,7.35
2022-11-15T10:27:55.547Z,7.34
2022-11-15T10:30:22.051Z,7.36
2022-11-15T10:32:49.019Z,7.39
2022-11-15T10:35:29.538Z,7.41
2022-11-15T10:38:09.650Z,7.44
2022-11-15T10:40:36.805Z,7.41
2022-11-15T10:43:13.749Z,7.44
2022-11-15T10:45:40.332Z,7.46
2022-11-15T10:48:12.617Z,7.47
2022-11-15T10:50:40.327Z,7.49
2022-11-15T10:53:18.396Z,7.52
2022-11-15T10:55:48.129Z,7.51
2022-11-15T10:58:35.129Z,7.58
2022-11-15T11:01:12.443Z,7.58
2022-11-15T11:03:39.702Z,7.53
2022-11-15T11:06:16.468Z,7.53
2022-11-15T11:08:54.951Z,7.52
2022-11-15T11:11:21.284Z,7.52
2022-11-15T11:13:47.779Z,7.50
2022-11-15T11:16:36.391Z,7.50
2022-11-15T11:19:31.572Z,7.49
2022-11-15T11:22:14.148Z,7.51
2022-11-15T11:24:45.054Z,7.54
2022-11-15T11:27:18.741Z,7.54
2022-11-15T11:29:51.190Z,7.54
2022-11-15T11:32:36.381Z,7.55
2022-11-15T11:35:02.709Z,7.56
2022-11-15T11:37:45.103Z,7.56
2022-11-15T11:40:17.357Z,7.58
2022-11-15T11:42:54.983Z,7.59
2022-11-15T11:45:25.501Z,7.61
2022-11-15T11:48:00.671Z,7.65
2022-11-15T11:50:28.763Z,7.66
2022-11-15T11:53:04.155Z,7.67
2022-11-15T11:55:33.850Z,7.70
2022-11-15T11:58:06.151Z,7.72
2022-11-15T12:00:35.328Z,7.73
2022-11-15T12:03:20.631Z,7.77
2022-11-15T12:05:47.012Z,7.77
2022-11-15T12:08:25.047Z,7.75
2022-11-15T12:10:59.491Z,7.76
2022-11-15T12:13:27.252Z,7.81
2022-11-15T12:16:09.067Z,7.85
2022-11-15T12:18:36.700Z,7.89
2022-11-15T12:21:07.423Z,7.91
2022-11-15T12:23:39.407Z,7.93
2022-11-15T12:26:26.076Z,7.95
2022-11-15T12:29:07.581Z,7.96
2022-11-15T12:31:42.891Z,7.96
2022-11-15T12:34:20.880Z,7.95
2022-11-15T12:36:48.088Z,7.95
2022-11-15T12:39:15.689Z,7.98
2022-11-15T12:41:43.440Z,7.97
2022-11-15T12:44:13.804Z,7.99
2022-11-15T12:46:40.088Z,8.03
2022-11-15T12:49:11.156Z,8.10
2022-11-15T12:51:43.768Z,8.12
2022-11-15T12:54:25.291Z,8.17
2022-11-15T12:57:03.908Z,8.18
2022-11-15T12:59:49.050Z,8.21
2022-11-15T13:02:25.749Z,8.27
2022-11-15T13:04:52.880Z,8.28
2022-11-15T13:07:39.499Z,8.32
2022-11-15T13:10:14.704Z,8.35
2022-11-15T13:12:47.036Z,8.35
2022-11-15T13:15:13.422Z,8.37
2022-11-15T13:17:47.171Z,8.38
2022-11-15T13:20:16.165Z,8.38
2022-11-15T13:22:53.350Z,8.38
2022-11-15T13:25:23.456Z,8.39
2022-11-15T13:27:50.480Z,8.40
2022-11-15T13:30:21.707Z,8.40
2022-11-15T13:32:48.857Z,8.40
2022-11-15T13:35:22.571Z,8.41
2022-11-15T13:37:49.204Z,8.41
2022-11-15T13:40:24.693Z,8.44
2022-11-15T13:42:51.347Z,8.45
2022-11-15T13:45:19.149Z,8.45
2022-11-15T13:47:45.498Z,8.49
2022-11-15T13:50:12.682Z,8.51
2022-11-15T13:52:41.466Z,8.53
2022-11-15T13:55:14.200Z,8.58
2022-11-15T13:57:45.610Z,8.61
2022-11-15T14:00:26.005Z,8.64
2022-11-15T14:02:52.454Z,8.66
2022-11-15T14:05:20.129Z,8.70
2022-11-15T14:07:56.898Z,8.73
2022-11-15T14:10:26.265Z,8.74
2022-11-15T14:12:53.398Z,8.74
2022-11-15T14:15:28.294Z,8.76
2022-11-15T14:17:54.752Z,8.76
2022-11-15T14:20:26.840Z,8.76
2022-11-15T14:22:54.236Z,8.77
2022-11-15T14:25:23.525Z,8.77
2022-11-15T14:28:08.802Z,8.75
2022-11-15T14:30:35.268Z,8.75
2022-11-15T14:33:01.859Z,8.75
2022-11-15T14:35:28.242Z,8.75
2022-11-15T14:37:54.528Z,8.77
2022-11-15T14:40:21.884Z,8.77
2022-11-15T14:42:49.198Z,8.76
2022-11-15T14:45:19.719Z,8.77
2022-11-15T14:47:46.507Z,8.76
2022-11-15T14:50:17.079Z,8.77
2022-11-15T14:52:44.012Z,8.76
2022-11-15T14:55:21.299Z,8.74
2022-11-15T14:57:47.582Z,8.73
2022-11-15T15:00:14.614Z,8.68
2022-11-15T15:02:42.102Z,8.62
2022-11-15T15:05:20.428Z,8.51
2022-11-15T15:07:47.209Z,8.41
2022-11-15T15:10:38.951Z,8.34
2022-11-15T15:13:04.460Z,8.23
2022-11-15T15:15:39.465Z,8.13
2022-11-15T15:18:06.598Z,8.02
2022-11-15T15:20:34.242Z,7.98
2022-11-15T15:23:00.542Z,7.97
2022-11-15T15:25:32.795Z,7.95
2022-11-15T15:27:59.781Z,7.95
2022-11-15T15:30:26.944Z,7.92
2022-11-15T15:32:53.828Z,7.91
2022-11-15T15:35:20.189Z,7.85
2022-11-15T15:37:47.461Z,7.78
2022-11-15T15:40:18.484Z,7.73
2022-11-15T15:45:26.009Z,7.50
2022-11-15T15:47:53.012Z,7.38
2022-11-15T15:50:23.149Z,7.32
2022-11-15T15:52:50.140Z,7.33
2022-11-15T15:55:16.825Z,7.34
2022-11-15T15:57:43.159Z,7.34
2022-11-15T16:00:10.176Z,7.38
2022-11-15T16:02:40.472Z,7.44
2022-11-15T16:05:07.876Z,7.39
2022-11-15T16:07:36.417Z,7.39
2022-11-15T16:10:04.951Z,7.36
2022-11-15T16:12:32.954Z,7.34
2022-11-15T16:14:59.775Z,7.31
2022-11-15T16:17:32.810Z,7.27
2022-11-15T16:20:00.911Z,7.23
2022-11-15T16:22:27.307Z,7.25
2022-11-15T16:24:53.587Z,7.18
2022-11-15T16:27:20.893Z,7.08
2022-11-15T16:29:47.729Z,7.02
2022-11-15T16:32:14.247Z,6.98
2022-11-15T16:34:44.916Z,7.00
2022-11-15T16:37:23.523Z,7.05
2022-11-15T16:39:50.051Z,6.95
2022-11-15T16:42:16.378Z,6.94
2022-11-15T16:44:42.669Z,6.87
2022-11-15T16:47:27.303Z,6.90
2022-11-15T16:49:53.602Z,6.89
2022-11-15T16:52:21.484Z,6.84
2022-11-15T16:54:48.048Z,6.87
2022-11-15T16:57:14.356Z,6.80
2022-11-15T16:59:40.632Z,6.80
2022-11-15T17:02:11.662Z,6.74
2022-11-15T17:04:38.349Z,6.65
2022-11-15T17:07:04.842Z,6.62
2022-11-15T17:09:31.314Z,6.54
2022-11-15T17:11:57.627Z,6.50
2022-11-15T17:14:23.942Z,6.48
2022-11-15T17:16:50.422Z,6.45
2022-11-15T17:19:18.889Z,6.45
2022-11-15T17:21:45.938Z,6.45
2022-11-15T17:24:12.297Z,6.49
2022-11-15T17:26:40.716Z,6.66
2022-11-15T17:29:08.024Z,6.80
2022-11-15T17:31:37.752Z,6.86
2022-11-15T17:34:05.468Z,6.98
2022-11-15T17:36:32.007Z,7.09
2022-11-15T17:38:59.920Z,7.17
2022-11-15T17:41:26.991Z,7.22
2022-11-15T17:43:53.360Z,7.34
2022-11-15T17:46:21.343Z,7.41
2022-11-15T17:48:48.487Z,7.46
2022-11-15T17:51:15.967Z,7.56
2022-11-15T17:53:43.177Z,7.60
2022-11-15T17:56:09.546Z,7.66
2022-11-15T17:58:35.904Z,7.75
2022-11-15T18:01:19.142Z,7.79
2022-11-15T18:03:45.834Z,7.84
2022-11-15T18:06:12.579Z,7.88
2022-11-15T18:08:39.995Z,7.91
2022-11-15T18:11:13.697Z,7.98
2022-11-15T18:13:40.730Z,8.06
2022-11-15T18:16:08.916Z,8.10
2022-11-15T18:18:35.980Z,8.11
2022-11-15T18:21:10.968Z,8.12
2022-11-15T18:23:37.587Z,8.10
2022-11-15T18:26:04.989Z,8.09
2022-11-15T18:28:32.801Z,8.09
2022-11-15T18:30:59.988Z,8.09
2022-11-15T18:33:27.259Z,8.08
2022-11-15T18:36:04.067Z,8.08
2022-11-15T18:38:31.044Z,8.04
2022-11-15T18:41:08.167Z,8.06
2022-11-15T18:43:34.794Z,8.05
2022-11-15T18:46:05.379Z,8.05
2022-11-15T18:48:32.566Z,8.03
2022-11-15T18:51:05.258Z,8.01
2022-11-15T18:53:32.384Z,8.00
2022-11-15T18:56:06.257Z,7.97
2022-11-15T18:58:33.835Z,7.97
2022-11-15T19:01:01.078Z,7.97
2022-11-15T19:03:30.685Z,7.93
2022-11-15T19:06:07.478Z,7.91
2022-11-15T19:08:35.639Z,7.90
2022-11-15T19:11:03.149Z,7.90
2022-11-15T19:13:29.603Z,7.89
2022-11-15T19:15:59.672Z,7.86
2022-11-15T19:18:26.354Z,7.86
2022-11-15T19:20:52.763Z,7.84
2022-11-15T19:23:19.122Z,7.84
2022-11-15T19:25:53.214Z,7.84
2022-11-15T19:28:19.940Z,7.82
2022-11-15T19:30:46.279Z,7.78
2022-11-15T19:33:12.550Z,7.77
2022-11-15T19:35:38.850Z,7.74
2022-11-15T19:38:05.153Z,7.72
2022-11-15T19:40:33.067Z,7.67
2022-11-15T19:42:59.379Z,7.64
2022-11-15T19:45:25.686Z,7.61
2022-11-15T19:47:51.973Z,7.60
2022-11-15T19:50:18.335Z,7.58
2022-11-15T19:52:44.650Z,7.58
2022-11-15T19:55:11.154Z,7.57
2022-11-15T19:57:37.472Z,7.57
2022-11-15T20:00:07.432Z,7.57
2022-11-15T20:02:33.991Z,7.56
2022-11-15T20:05:00.347Z,7.55
2022-11-15T20:07:26.702Z,7.54
2022-11-15T20:09:53.793Z,7.49
2022-11-15T20:12:20.150Z,7.48
2022-11-15T20:14:46.615Z,7.46
2022-11-15T20:17:13.840Z,7.44
2022-11-15T20:19:40.139Z,7.43
2022-11-15T20:22:06.460Z,7.41
2022-11-15T20:24:32.751Z,7.39
2022-11-15T20:26:59.047Z,7.38
2022-11-15T20:29:25.357Z,7.39
2022-11-15T20:31:51.648Z,7.37
2022-11-15T20:34:17.932Z,7.35
2022-11-15T20:36:44.227Z,7.34
2022-11-15T20:39:10.521Z,7.33
2022-11-15T20:41:36.823Z,7.34
2022-11-15T20:44:03.325Z,7.28
2022-11-15T20:46:29.615Z,7.30
2022-11-15T20:48:55.906Z,7.31
2022-11-15T20:51:22.236Z,7.27
2022-11-15T20:53:48.968Z,7.24
2022-11-15T20:56:17.474Z,7.24
2022-11-15T20:58:45.655Z,7.22
2022-11-15T21:01:14.149Z,7.23
2022-11-15T21:03:40.875Z,7.22
2022-11-15T21:06:07.337Z,7.20
2022-11-15T21:08:53.636Z,7.22
2022-11-15T21:11:46.255Z,7.20
2022-11-15T21:14:12.555Z,7.18
2022-11-15T21:16:38.964Z,7.15
2022-11-15T21:19:06.028Z,7.12
2022-11-15T21:21:32.571Z,7.12
2022-11-15T21:23:58.882Z,7.15
2022-11-15T21:26:26.416Z,7.13
2022-11-15T21:28:52.725Z,7.13
2022-11-15T21:31:19.104Z,7.13
2022-11-15T21:33:45.407Z,7.10
2022-11-15T21:36:11.705Z,7.09
2022-11-15T21:38:38.264Z,7.08
2022-11-15T21:41:04.817Z,7.06
2022-11-15T21:43:31.425Z,7.06
2022-11-15T21:46:00.065Z,7.02
2022-11-15T21:48:27.225Z,7.00
2022-11-15T21:51:00.514Z,6.94
2022-11-15T21:53:27.276Z,6.94
2022-11-15T21:55:53.932Z,6.94
2022-11-15T21:58:21.516Z,6.92
2022-11-15T22:01:07.322Z,6.88
2022-11-15T22:03:34.158Z,6.88
2022-11-15T22:06:00.815Z,6.89
2022-11-15T22:08:27.701Z,6.88
2022-11-15T22:10:54.176Z,6.88
2022-11-15T22:13:20.986Z,6.87
2022-11-15T22:15:47.521Z,6.86
2022-11-15T22:18:14.315Z,6.82
2022-11-15T22:20:45.298Z,6.78
2022-11-15T22:23:11.833Z,6.75
2022-11-15T22:25:38.137Z,6.75
2022-11-15T22:28:04.567Z,6.78
2022-11-15T22:30:30.881Z,6.78
2022-11-15T22:32:57.359Z,6.74
2022-11-15T22:35:23.653Z,6.74
2022-11-15T22:37:49.954Z,6.75
2022-11-15T22:40:16.450Z,6.71
2022-11-15T22:42:42.745Z,6.72
2022-11-15T22:45:09.365Z,6.69
2022-11-15T22:47:35.962Z,6.71
2022-11-15T22:50:02.509Z,6.70
2022-11-15T22:52:28.794Z,6.68
2022-11-15T22:54:55.094Z,6.68
2022-11-15T22:57:21.435Z,6.67
2022-11-15T22:59:47.814Z,6.67
2022-11-15T23:02:14.129Z,6.62
2022-11-15T23:04:40.615Z,6.64
2022-11-15T23:07:06.967Z,6.60
2022-11-15T23:09:33.355Z,6.57
2022-11-15T23:12:18.231Z,6.58
2022-11-15T23:14:44.541Z,6.58
2022-11-15T23:17:10.907Z,6.55
2022-11-15T23:19:37.228Z,6.52
2022-11-15T23:22:22.418Z,6.54
2022-11-15T23:24:48.926Z,6.55
2022-11-15T23:27:19.715Z,6.55
2022-11-15T23:30:05.246Z,6.54
2022-11-15T23:32:50.053Z,6.56
2022-11-15T23:35:16.857Z,6.54
2022-11-15T23:37:43.307Z,6.52
2022-11-15T23:40:10.077Z,6.52
2022-11-15T23:42:36.592Z,6.51
2022-11-15T23:45:02.991Z,6.48
2022-11-15T23:47:29.445Z,6.47
2022-11-15T23:49:55.805Z,6.46
2022-11-15T23:52:23.187Z,6.43
2022-11-15T23:54:49.932Z,6.42
2022-11-15T23:57:16.248Z,6.43
2022-11-15T23:59:45.525Z,6.44
